sensor_id;sensor_type;location;lat;lon;timestamp;P1;durP1;ratioP1;P2;durP2;ratioP2
20689;SDS011;10504;48.762;8.996;2022-08-11T00:00:36;0.80;;;0.70;;
20689;SDS011;10504;48.762;8.996;2022-08-11T00:03:05;1.47;;;0.80;;
20689;SDS011;10504;48.762;8.996;2022-08-11T00:05:32;2.80;;;1.00;;
20689;SDS011;10504;48.762;8.996;2022-08-11T00:08:23;4.07;;;1.10;;
20689;SDS011;10504;48.762;8.996;2022-08-11T00:11:01;0.80;;;0.77;;
20689;SDS011;10504;48.762;8.996;2022-08-11T00:13:33;2.63;;;0.83;;
20689;SDS011;10504;48.762;8.996;2022-08-11T00:16:02;2.83;;;0.90;;
20689;SDS011;10504;48.762;8.996;2022-08-11T00:18:30;1.87;;;1.10;;
20689;SDS011;10504;48.762;8.996;2022-08-11T00:21:17;1.23;;;0.67;;
20689;SDS011;10504;48.762;8.996;2022-08-11T00:23:46;0.97;;;0.60;;
20689;SDS011;10504;48.762;8.996;2022-08-11T00:26:21;0.80;;;0.70;;
20689;SDS011;10504;48.762;8.996;2022-08-11T00:28:49;1.00;;;0.90;;
20689;SDS011;10504;48.762;8.996;2022-08-11T00:33:52;2.33;;;0.80;;
20689;SDS011;10504;48.762;8.996;2022-08-11T00:36:21;1.13;;;0.83;;
20689;SDS011;10504;48.762;8.996;2022-08-11T00:38:51;2.40;;;0.90;;
20689;SDS011;10504;48.762;8.996;2022-08-11T00:41:31;1.80;;;0.77;;
20689;SDS011;10504;48.762;8.996;2022-08-11T00:52:15;1.50;;;1.00;;
20689;SDS011;10504;48.762;8.996;2022-08-11T00:58:05;2.57;;;0.80;;
20689;SDS011;10504;48.762;8.996;2022-08-11T01:10:10;1.70;;;1.20;;
20689;SDS011;10504;48.762;8.996;2022-08-11T01:13:06;0.70;;;0.70;;
20689;SDS011;10504;48.762;8.996;2022-08-11T01:18:37;1.30;;;0.80;;
20689;SDS011;10504;48.762;8.996;2022-08-11T01:27:31;2.10;;;0.90;;
20689;SDS011;10504;48.762;8.996;2022-08-11T01:39:07;1.67;;;0.90;;
20689;SDS011;10504;48.762;8.996;2022-08-11T01:42:03;1.90;;;1.27;;
20689;SDS011;10504;48.762;8.996;2022-08-11T01:50:17;1.53;;;0.70;;
20689;SDS011;10504;48.762;8.996;2022-08-11T01:53:03;2.00;;;1.07;;
20689;SDS011;10504;48.762;8.996;2022-08-11T02:03:53;2.33;;;1.00;;
20689;SDS011;10504;48.762;8.996;2022-08-11T02:12:15;3.77;;;0.83;;
20689;SDS011;10504;48.762;8.996;2022-08-11T02:15:14;1.30;;;0.70;;
20689;SDS011;10504;48.762;8.996;2022-08-11T02:20:23;1.60;;;0.80;;
20689;SDS011;10504;48.762;8.996;2022-08-11T02:26:23;1.17;;;1.00;;
20689;SDS011;10504;48.762;8.996;2022-08-11T02:31:57;1.43;;;1.00;;
20689;SDS011;10504;48.762;8.996;2022-08-11T02:35:03;3.57;;;1.20;;
20689;SDS011;10504;48.762;8.996;2022-08-11T02:56:24;0.93;;;0.80;;
20689;SDS011;10504;48.762;8.996;2022-08-11T03:05:00;2.60;;;1.20;;
20689;SDS011;10504;48.762;8.996;2022-08-11T03:13:30;1.40;;;1.00;;
20689;SDS011;10504;48.762;8.996;2022-08-11T03:16:31;2.73;;;1.10;;
20689;SDS011;10504;48.762;8.996;2022-08-11T03:24:50;2.43;;;1.10;;
20689;SDS011;10504;48.762;8.996;2022-08-11T03:27:30;2.37;;;1.17;;
20689;SDS011;10504;48.762;8.996;2022-08-11T03:30:28;2.47;;;1.23;;
20689;SDS011;10504;48.762;8.996;2022-08-11T03:39:11;3.57;;;1.87;;
20689;SDS011;10504;48.762;8.996;2022-08-11T03:47:46;2.27;;;1.17;;
20689;SDS011;10504;48.762;8.996;2022-08-11T03:52:48;1.80;;;1.00;;
20689;SDS011;10504;48.762;8.996;2022-08-11T04:03:43;2.70;;;1.27;;
20689;SDS011;10504;48.762;8.996;2022-08-11T04:24:37;2.13;;;1.20;;
20689;SDS011;10504;48.762;8.996;2022-08-11T04:41:55;2.27;;;1.20;;
20689;SDS011;10504;48.762;8.996;2022-08-11T04:48:18;2.63;;;1.10;;
20689;SDS011;10504;48.762;8.996;2022-08-11T04:57:21;3.47;;;1.40;;
20689;SDS011;10504;48.762;8.996;2022-08-11T05:00:55;4.83;;;1.43;;
20689;SDS011;10504;48.762;8.996;2022-08-11T05:04:11;5.57;;;2.00;;
20689;SDS011;10504;48.762;8.996;2022-08-11T05:07:29;5.60;;;2.00;;
20689;SDS011;10504;48.762;8.996;2022-08-11T05:13:21;2.77;;;1.67;;
20689;SDS011;10504;48.762;8.996;2022-08-11T05:16:10;5.20;;;1.80;;
20689;SDS011;10504;48.762;8.996;2022-08-11T05:18:58;2.97;;;1.33;;
20689;SDS011;10504;48.762;8.996;2022-08-11T05:21:44;3.93;;;1.43;;
20689;SDS011;10504;48.762;8.996;2022-08-11T05:24:46;1.60;;;1.20;;
20689;SDS011;10504;48.762;8.996;2022-08-11T05:27:37;3.80;;;1.60;;
20689;SDS011;10504;48.762;8.996;2022-08-11T05:30:27;4.43;;;1.60;;
20689;SDS011;10504;48.762;8.996;2022-08-11T05:36:30;3.07;;;1.53;;
20689;SDS011;10504;48.762;8.996;2022-08-11T05:39:17;3.27;;;1.30;;
20689;SDS011;10504;48.762;8.996;2022-08-11T05:42:06;2.37;;;1.33;;
20689;SDS011;10504;48.762;8.996;2022-08-11T05:44:56;3.53;;;1.20;;
20689;SDS011;10504;48.762;8.996;2022-08-11T05:47:49;2.50;;;1.30;;
20689;SDS011;10504;48.762;8.996;2022-08-11T05:50:35;7.07;;;1.50;;
20689;SDS011;10504;48.762;8.996;2022-08-11T05:53:20;2.37;;;1.30;;
20689;SDS011;10504;48.762;8.996;2022-08-11T05:56:04;5.13;;;1.60;;
20689;SDS011;10504;48.762;8.996;2022-08-11T05:58:45;3.63;;;1.27;;
20689;SDS011;10504;48.762;8.996;2022-08-11T06:01:23;1.40;;;1.00;;
20689;SDS011;10504;48.762;8.996;2022-08-11T06:03:51;1.97;;;1.13;;
20689;SDS011;10504;48.762;8.996;2022-08-11T06:06:38;3.30;;;1.27;;
20689;SDS011;10504;48.762;8.996;2022-08-11T06:09:11;1.80;;;1.10;;
20689;SDS011;10504;48.762;8.996;2022-08-11T06:11:38;1.87;;;1.20;;
20689;SDS011;10504;48.762;8.996;2022-08-11T06:14:07;2.57;;;1.17;;
20689;SDS011;10504;48.762;8.996;2022-08-11T06:16:35;1.80;;;1.13;;
20689;SDS011;10504;48.762;8.996;2022-08-11T06:19:02;2.30;;;1.57;;
20689;SDS011;10504;48.762;8.996;2022-08-11T06:21:32;3.60;;;0.90;;
20689;SDS011;10504;48.762;8.996;2022-08-11T06:24:00;1.97;;;1.13;;
20689;SDS011;10504;48.762;8.996;2022-08-11T06:26:29;4.23;;;1.40;;
20689;SDS011;10504;48.762;8.996;2022-08-11T06:28:57;3.47;;;1.33;;
20689;SDS011;10504;48.762;8.996;2022-08-11T06:31:25;1.67;;;1.03;;
20689;SDS011;10504;48.762;8.996;2022-08-11T06:37:08;2.10;;;1.30;;
20689;SDS011;10504;48.762;8.996;2022-08-11T06:42:10;3.43;;;1.70;;
20689;SDS011;10504;48.762;8.996;2022-08-11T06:45:08;2.50;;;1.30;;
20689;SDS011;10504;48.762;8.996;2022-08-11T06:47:50;2.47;;;1.23;;
20689;SDS011;10504;48.762;8.996;2022-08-11T06:50:17;2.80;;;1.30;;
20689;SDS011;10504;48.762;8.996;2022-08-11T06:53:04;1.93;;;1.10;;
20689;SDS011;10504;48.762;8.996;2022-08-11T06:55:34;1.83;;;1.07;;
20689;SDS011;10504;48.762;8.996;2022-08-11T06:58:21;4.23;;;1.50;;
20689;SDS011;10504;48.762;8.996;2022-08-11T07:01:14;3.23;;;1.10;;
20689;SDS011;10504;48.762;8.996;2022-08-11T07:03:53;1.00;;;0.80;;
20689;SDS011;10504;48.762;8.996;2022-08-11T07:12:32;2.33;;;1.03;;
20689;SDS011;10504;48.762;8.996;2022-08-11T07:15:23;1.10;;;1.00;;
20689;SDS011;10504;48.762;8.996;2022-08-11T07:18:07;1.67;;;1.23;;
20689;SDS011;10504;48.762;8.996;2022-08-11T07:21:04;1.70;;;1.10;;
20689;SDS011;10504;48.762;8.996;2022-08-11T07:23:53;1.93;;;1.07;;
20689;SDS011;10504;48.762;8.996;2022-08-11T07:26:39;3.47;;;1.27;;
20689;SDS011;10504;48.762;8.996;2022-08-11T07:29:33;1.43;;;0.97;;
20689;SDS011;10504;48.762;8.996;2022-08-11T07:32:01;6.73;;;1.53;;
20689;SDS011;10504;48.762;8.996;2022-08-11T07:34:44;2.20;;;1.20;;
20689;SDS011;10504;48.762;8.996;2022-08-11T07:37:15;1.53;;;1.07;;
20689;SDS011;10504;48.762;8.996;2022-08-11T07:39:43;1.13;;;0.70;;
20689;SDS011;10504;48.762;8.996;2022-08-11T07:42:12;2.83;;;1.00;;
20689;SDS011;10504;48.762;8.996;2022-08-11T07:44:40;1.83;;;1.30;;
20689;SDS011;10504;48.762;8.996;2022-08-11T07:47:26;4.60;;;1.30;;
20689;SDS011;10504;48.762;8.996;2022-08-11T07:50:12;1.67;;;0.90;;
20689;SDS011;10504;48.762;8.996;2022-08-11T07:52:57;2.43;;;1.27;;
20689;SDS011;10504;48.762;8.996;2022-08-11T07:55:24;2.57;;;1.13;;
20689;SDS011;10504;48.762;8.996;2022-08-11T07:57:52;1.63;;;0.97;;
20689;SDS011;10504;48.762;8.996;2022-08-11T08:00:37;2.37;;;1.30;;
20689;SDS011;10504;48.762;8.996;2022-08-11T08:03:25;2.43;;;1.47;;
20689;SDS011;10504;48.762;8.996;2022-08-11T08:06:12;1.80;;;1.00;;
20689;SDS011;10504;48.762;8.996;2022-08-11T08:08:56;2.87;;;1.30;;
20689;SDS011;10504;48.762;8.996;2022-08-11T08:11:42;1.50;;;0.90;;
20689;SDS011;10504;48.762;8.996;2022-08-11T08:14:28;1.07;;;0.87;;
20689;SDS011;10504;48.762;8.996;2022-08-11T08:17:13;1.00;;;0.90;;
20689;SDS011;10504;48.762;8.996;2022-08-11T08:19:57;1.80;;;0.93;;
20689;SDS011;10504;48.762;8.996;2022-08-11T08:22:24;1.27;;;0.90;;
20689;SDS011;10504;48.762;8.996;2022-08-11T08:24:50;1.93;;;1.37;;
20689;SDS011;10504;48.762;8.996;2022-08-11T08:27:17;4.17;;;1.00;;
20689;SDS011;10504;48.762;8.996;2022-08-11T08:29:45;2.83;;;1.13;;
20689;SDS011;10504;48.762;8.996;2022-08-11T08:58:00;1.23;;;1.00;;
20689;SDS011;10504;48.762;8.996;2022-08-11T09:00:36;0.73;;;0.73;;
20689;SDS011;10504;48.762;8.996;2022-08-11T09:03:04;1.10;;;0.90;;
20689;SDS011;10504;48.762;8.996;2022-08-11T09:05:30;1.87;;;0.93;;
20689;SDS011;10504;48.762;8.996;2022-08-11T09:07:56;1.60;;;0.90;;
20689;SDS011;10504;48.762;8.996;2022-08-11T09:10:22;1.23;;;0.80;;
20689;SDS011;10504;48.762;8.996;2022-08-11T09:12:49;4.00;;;1.00;;
20689;SDS011;10504;48.762;8.996;2022-08-11T09:15:17;2.10;;;0.97;;
20689;SDS011;10504;48.762;8.996;2022-08-11T09:17:50;4.27;;;1.37;;
20689;SDS011;10504;48.762;8.996;2022-08-11T09:20:27;2.10;;;1.20;;
20689;SDS011;10504;48.762;8.996;2022-08-11T09:22:58;0.70;;;0.70;;
20689;SDS011;10504;48.762;8.996;2022-08-11T09:25:54;1.77;;;0.93;;
20689;SDS011;10504;48.762;8.996;2022-08-11T09:28:43;1.80;;;0.70;;
20689;SDS011;10504;48.762;8.996;2022-08-11T09:31:10;1.27;;;0.73;;
20689;SDS011;10504;48.762;8.996;2022-08-11T09:33:37;1.23;;;0.93;;
20689;SDS011;10504;48.762;8.996;2022-08-11T09:36:04;0.70;;;0.60;;
20689;SDS011;10504;48.762;8.996;2022-08-11T09:38:50;1.33;;;0.70;;
20689;SDS011;10504;48.762;8.996;2022-08-11T09:41:43;1.60;;;0.90;;
20689;SDS011;10504;48.762;8.996;2022-08-11T09:44:09;1.80;;;0.97;;
20689;SDS011;10504;48.762;8.996;2022-08-11T09:46:55;2.17;;;0.77;;
20689;SDS011;10504;48.762;8.996;2022-08-11T09:49:23;1.00;;;0.80;;
20689;SDS011;10504;48.762;8.996;2022-08-11T09:51:50;2.13;;;1.07;;
20689;SDS011;10504;48.762;8.996;2022-08-11T09:54:17;2.37;;;1.00;;
20689;SDS011;10504;48.762;8.996;2022-08-11T09:56:43;1.97;;;1.10;;
20689;SDS011;10504;48.762;8.996;2022-08-11T09:59:28;0.87;;;0.70;;
20689;SDS011;10504;48.762;8.996;2022-08-11T10:01:58;1.60;;;1.17;;
20689;SDS011;10504;48.762;8.996;2022-08-11T10:04:42;1.17;;;0.90;;
20689;SDS011;10504;48.762;8.996;2022-08-11T10:07:09;1.03;;;0.70;;
20689;SDS011;10504;48.762;8.996;2022-08-11T10:12:26;2.50;;;1.07;;
20689;SDS011;10504;48.762;8.996;2022-08-11T10:15:04;0.90;;;0.60;;
20689;SDS011;10504;48.762;8.996;2022-08-11T10:17:56;0.97;;;0.87;;
20689;SDS011;10504;48.762;8.996;2022-08-11T10:20:46;1.20;;;0.80;;
20689;SDS011;10504;48.762;8.996;2022-08-11T10:23:14;0.63;;;0.63;;
20689;SDS011;10504;48.762;8.996;2022-08-11T10:25:59;3.93;;;1.70;;
20689;SDS011;10504;48.762;8.996;2022-08-11T10:28:44;1.10;;;0.80;;
20689;SDS011;10504;48.762;8.996;2022-08-11T10:31:10;0.70;;;0.70;;
20689;SDS011;10504;48.762;8.996;2022-08-11T10:33:56;1.30;;;0.73;;
20689;SDS011;10504;48.762;8.996;2022-08-11T10:36:29;0.97;;;0.80;;
20689;SDS011;10504;48.762;8.996;2022-08-11T10:39:06;1.60;;;0.90;;
20689;SDS011;10504;48.762;8.996;2022-08-11T10:41:33;1.23;;;0.60;;
20689;SDS011;10504;48.762;8.996;2022-08-11T10:44:17;0.40;;;0.40;;
20689;SDS011;10504;48.762;8.996;2022-08-11T10:46:45;2.27;;;0.83;;
20689;SDS011;10504;48.762;8.996;2022-08-11T10:49:30;1.30;;;0.67;;
20689;SDS011;10504;48.762;8.996;2022-08-11T10:51:56;0.70;;;0.70;;
20689;SDS011;10504;48.762;8.996;2022-08-11T10:54:41;0.93;;;0.73;;
20689;SDS011;10504;48.762;8.996;2022-08-11T10:57:27;1.23;;;0.70;;
20689;SDS011;10504;48.762;8.996;2022-08-11T11:00:12;0.63;;;0.63;;
20689;SDS011;10504;48.762;8.996;2022-08-11T11:02:43;1.70;;;0.97;;
20689;SDS011;10504;48.762;8.996;2022-08-11T11:10:24;0.50;;;0.50;;
20689;SDS011;10504;48.762;8.996;2022-08-11T11:12:53;0.67;;;0.67;;
20689;SDS011;10504;48.762;8.996;2022-08-11T11:15:41;1.13;;;0.70;;
20689;SDS011;10504;48.762;8.996;2022-08-11T11:18:30;3.33;;;0.63;;
20689;SDS011;10504;48.762;8.996;2022-08-11T11:21:03;2.63;;;0.97;;
20689;SDS011;10504;48.762;8.996;2022-08-11T11:23:42;0.83;;;0.57;;
20689;SDS011;10504;48.762;8.996;2022-08-11T11:37:45;1.30;;;0.60;;
20689;SDS011;10504;48.762;8.996;2022-08-11T11:40:15;1.40;;;0.70;;
20689;SDS011;10504;48.762;8.996;2022-08-11T11:42:45;0.70;;;0.30;;
20689;SDS011;10504;48.762;8.996;2022-08-11T11:45:14;0.83;;;0.70;;
20689;SDS011;10504;48.762;8.996;2022-08-11T11:47:48;1.33;;;0.70;;
20689;SDS011;10504;48.762;8.996;2022-08-11T11:50:26;0.70;;;0.70;;
20689;SDS011;10504;48.762;8.996;2022-08-11T11:52:53;0.70;;;0.70;;
20689;SDS011;10504;48.762;8.996;2022-08-11T11:55:22;1.33;;;0.70;;
20689;SDS011;10504;48.762;8.996;2022-08-11T11:57:49;0.73;;;0.70;;
20689;SDS011;10504;48.762;8.996;2022-08-11T12:00:35;1.80;;;0.80;;
20689;SDS011;10504;48.762;8.996;2022-08-11T12:03:21;1.03;;;0.50;;
20689;SDS011;10504;48.762;8.996;2022-08-11T12:05:48;3.30;;;1.10;;
20689;SDS011;10504;48.762;8.996;2022-08-11T12:08:17;1.23;;;0.77;;
20689;SDS011;10504;48.762;8.996;2022-08-11T12:10:49;0.53;;;0.53;;
20689;SDS011;10504;48.762;8.996;2022-08-11T12:13:46;1.03;;;0.50;;
20689;SDS011;10504;48.762;8.996;2022-08-11T12:16:20;0.80;;;0.70;;
20689;SDS011;10504;48.762;8.996;2022-08-11T12:18:48;0.67;;;0.67;;
20689;SDS011;10504;48.762;8.996;2022-08-11T12:21:16;0.90;;;0.60;;
20689;SDS011;10504;48.762;8.996;2022-08-11T12:23:44;1.03;;;0.53;;
20689;SDS011;10504;48.762;8.996;2022-08-11T12:26:30;1.10;;;0.57;;
20689;SDS011;10504;48.762;8.996;2022-08-11T12:29:17;0.93;;;0.40;;
20689;SDS011;10504;48.762;8.996;2022-08-11T12:31:45;0.60;;;0.50;;
20689;SDS011;10504;48.762;8.996;2022-08-11T12:34:13;0.80;;;0.68;;
20689;SDS011;10504;48.762;8.996;2022-08-11T12:36:40;0.70;;;0.65;;
20689;SDS011;10504;48.762;8.996;2022-08-11T12:39:13;0.47;;;0.47;;
20689;SDS011;10504;48.762;8.996;2022-08-11T12:41:44;0.50;;;0.50;;
20689;SDS011;10504;48.762;8.996;2022-08-11T12:44:30;0.73;;;0.60;;
20689;SDS011;10504;48.762;8.996;2022-08-11T12:47:16;1.65;;;0.70;;
20689;SDS011;10504;48.762;8.996;2022-08-11T12:49:46;0.85;;;0.47;;
20689;SDS011;10504;48.762;8.996;2022-08-11T12:52:42;0.45;;;0.45;;
20689;SDS011;10504;48.762;8.996;2022-08-11T12:55:15;0.55;;;0.40;;
20689;SDS011;10504;48.762;8.996;2022-08-11T12:58:04;2.60;;;0.90;;
20689;SDS011;10504;48.762;8.996;2022-08-11T13:00:41;0.43;;;0.40;;
20689;SDS011;10504;48.762;8.996;2022-08-11T13:03:29;0.52;;;0.43;;
20689;SDS011;10504;48.762;8.996;2022-08-11T13:06:16;1.27;;;0.57;;
20689;SDS011;10504;48.762;8.996;2022-08-11T13:08:44;1.30;;;0.82;;
20689;SDS011;10504;48.762;8.996;2022-08-11T13:11:11;0.52;;;0.50;;
20689;SDS011;10504;48.762;8.996;2022-08-11T13:13:58;0.95;;;0.52;;
20689;SDS011;10504;48.762;8.996;2022-08-11T13:16:26;0.60;;;0.60;;
20689;SDS011;10504;48.762;8.996;2022-08-11T13:18:56;1.80;;;0.63;;
20689;SDS011;10504;48.762;8.996;2022-08-11T13:21:25;1.25;;;0.80;;
20689;SDS011;10504;48.762;8.996;2022-08-11T13:23:52;0.65;;;0.55;;
20689;SDS011;10504;48.762;8.996;2022-08-11T13:26:20;1.95;;;0.73;;
20689;SDS011;10504;48.762;8.996;2022-08-11T13:28:48;0.73;;;0.70;;
20689;SDS011;10504;48.762;8.996;2022-08-11T13:31:15;0.63;;;0.60;;
20689;SDS011;10504;48.762;8.996;2022-08-11T13:33:46;0.60;;;0.60;;
20689;SDS011;10504;48.762;8.996;2022-08-11T13:36:18;0.60;;;0.45;;
20689;SDS011;10504;48.762;8.996;2022-08-11T13:38:46;10.75;;;0.85;;
20689;SDS011;10504;48.762;8.996;2022-08-11T13:41:13;0.47;;;0.43;;
20689;SDS011;10504;48.762;8.996;2022-08-11T13:43:57;0.52;;;0.50;;
20689;SDS011;10504;48.762;8.996;2022-08-11T13:46:24;0.63;;;0.40;;
20689;SDS011;10504;48.762;8.996;2022-08-11T13:48:52;1.17;;;1.00;;
20689;SDS011;10504;48.762;8.996;2022-08-11T13:51:19;0.88;;;0.50;;
20689;SDS011;10504;48.762;8.996;2022-08-11T13:54:06;2.00;;;0.80;;
20689;SDS011;10504;48.762;8.996;2022-08-11T13:56:34;2.15;;;0.60;;
20689;SDS011;10504;48.762;8.996;2022-08-11T13:59:06;0.85;;;0.50;;
20689;SDS011;10504;48.762;8.996;2022-08-11T14:01:34;0.88;;;0.57;;
20689;SDS011;10504;48.762;8.996;2022-08-11T14:04:13;0.40;;;0.40;;
20689;SDS011;10504;48.762;8.996;2022-08-11T14:06:45;0.57;;;0.50;;
20689;SDS011;10504;48.762;8.996;2022-08-11T14:09:15;0.95;;;0.65;;
20689;SDS011;10504;48.762;8.996;2022-08-11T14:11:48;1.00;;;0.82;;
20689;SDS011;10504;48.762;8.996;2022-08-11T14:14:33;0.50;;;0.50;;
20689;SDS011;10504;48.762;8.996;2022-08-11T14:17:04;14.45;;;1.13;;
20689;SDS011;10504;48.762;8.996;2022-08-11T14:19:34;0.60;;;0.50;;
20689;SDS011;10504;48.762;8.996;2022-08-11T14:22:04;1.05;;;0.73;;
20689;SDS011;10504;48.762;8.996;2022-08-11T14:24:35;1.13;;;0.50;;
20689;SDS011;10504;48.762;8.996;2022-08-11T14:27:07;0.90;;;0.77;;
20689;SDS011;10504;48.762;8.996;2022-08-11T14:29:36;0.55;;;0.52;;
20689;SDS011;10504;48.762;8.996;2022-08-11T14:32:05;0.50;;;0.50;;
20689;SDS011;10504;48.762;8.996;2022-08-11T14:34:33;0.52;;;0.52;;
20689;SDS011;10504;48.762;8.996;2022-08-11T14:37:11;0.60;;;0.55;;
20689;SDS011;10504;48.762;8.996;2022-08-11T14:39:40;0.57;;;0.57;;
20689;SDS011;10504;48.762;8.996;2022-08-11T14:42:09;0.40;;;0.40;;
20689;SDS011;10504;48.762;8.996;2022-08-11T14:44:55;0.60;;;0.50;;
20689;SDS011;10504;48.762;8.996;2022-08-11T14:47:43;2.97;;;0.70;;
20689;SDS011;10504;48.762;8.996;2022-08-11T14:50:13;0.40;;;0.40;;
20689;SDS011;10504;48.762;8.996;2022-08-11T14:52:47;0.55;;;0.47;;
20689;SDS011;10504;48.762;8.996;2022-08-11T14:55:16;1.58;;;0.40;;
20689;SDS011;10504;48.762;8.996;2022-08-11T14:58:02;0.40;;;0.40;;
20689;SDS011;10504;48.762;8.996;2022-08-11T15:00:29;0.43;;;0.43;;
20689;SDS011;10504;48.762;8.996;2022-08-11T15:02:56;0.82;;;0.60;;
20689;SDS011;10504;48.762;8.996;2022-08-11T15:05:57;0.52;;;0.40;;
20689;SDS011;10504;48.762;8.996;2022-08-11T15:08:29;2.75;;;0.93;;
20689;SDS011;10504;48.762;8.996;2022-08-11T15:11:16;0.57;;;0.57;;
20689;SDS011;10504;48.762;8.996;2022-08-11T15:14:02;0.68;;;0.68;;
20689;SDS011;10504;48.762;8.996;2022-08-11T15:16:30;0.77;;;0.50;;
20689;SDS011;10504;48.762;8.996;2022-08-11T15:19:15;1.05;;;0.80;;
20689;SDS011;10504;48.762;8.996;2022-08-11T15:21:46;0.60;;;0.60;;
20689;SDS011;10504;48.762;8.996;2022-08-11T15:24:31;0.50;;;0.50;;
20689;SDS011;10504;48.762;8.996;2022-08-11T15:27:00;0.57;;;0.55;;
20689;SDS011;10504;48.762;8.996;2022-08-11T15:29:48;0.77;;;0.50;;
20689;SDS011;10504;48.762;8.996;2022-08-11T15:32:34;1.35;;;0.60;;
20689;SDS011;10504;48.762;8.996;2022-08-11T15:35:22;1.65;;;0.85;;
20689;SDS011;10504;48.762;8.996;2022-08-11T15:38:07;0.50;;;0.50;;
20689;SDS011;10504;48.762;8.996;2022-08-11T15:40:38;1.42;;;0.50;;
20689;SDS011;10504;48.762;8.996;2022-08-11T15:46:19;1.00;;;0.40;;
20689;SDS011;10504;48.762;8.996;2022-08-11T15:48:55;0.95;;;0.40;;
20689;SDS011;10504;48.762;8.996;2022-08-11T15:51:39;0.77;;;0.47;;
20689;SDS011;10504;48.762;8.996;2022-08-11T15:54:10;0.40;;;0.40;;
20689;SDS011;10504;48.762;8.996;2022-08-11T15:56:40;1.05;;;0.60;;
20689;SDS011;10504;48.762;8.996;2022-08-11T15:59:10;0.40;;;0.40;;
20689;SDS011;10504;48.762;8.996;2022-08-11T16:01:56;0.40;;;0.40;;
20689;SDS011;10504;48.762;8.996;2022-08-11T16:04:54;0.63;;;0.63;;
20689;SDS011;10504;48.762;8.996;2022-08-11T16:07:23;2.67;;;1.05;;
20689;SDS011;10504;48.762;8.996;2022-08-11T16:09:53;0.98;;;0.60;;
20689;SDS011;10504;48.762;8.996;2022-08-11T16:12:43;0.50;;;0.50;;
20689;SDS011;10504;48.762;8.996;2022-08-11T16:15:48;0.65;;;0.50;;
20689;SDS011;10504;48.762;8.996;2022-08-11T16:18:55;0.35;;;0.35;;
20689;SDS011;10504;48.762;8.996;2022-08-11T16:21:23;0.40;;;0.40;;
20689;SDS011;10504;48.762;8.996;2022-08-11T16:23:57;0.75;;;0.60;;
20689;SDS011;10504;48.762;8.996;2022-08-11T16:26:24;0.30;;;0.30;;
20689;SDS011;10504;48.762;8.996;2022-08-11T16:28:54;0.85;;;0.70;;
20689;SDS011;10504;48.762;8.996;2022-08-11T16:31:21;0.50;;;0.40;;
20689;SDS011;10504;48.762;8.996;2022-08-11T16:33:48;0.40;;;0.40;;
20689;SDS011;10504;48.762;8.996;2022-08-11T16:36:16;0.47;;;0.47;;
20689;SDS011;10504;48.762;8.996;2022-08-11T16:39:03;0.63;;;0.50;;
20689;SDS011;10504;48.762;8.996;2022-08-11T16:41:31;0.70;;;0.50;;
20689;SDS011;10504;48.762;8.996;2022-08-11T16:44:18;0.73;;;0.47;;
20689;SDS011;10504;48.762;8.996;2022-08-11T16:47:09;0.57;;;0.57;;
20689;SDS011;10504;48.762;8.996;2022-08-11T16:49:47;1.10;;;0.47;;
20689;SDS011;10504;48.762;8.996;2022-08-11T16:52:16;0.40;;;0.40;;
20689;SDS011;10504;48.762;8.996;2022-08-11T16:54:42;0.60;;;0.40;;
20689;SDS011;10504;48.762;8.996;2022-08-11T16:57:43;0.53;;;0.53;;
20689;SDS011;10504;48.762;8.996;2022-08-11T17:00:21;0.40;;;0.40;;
20689;SDS011;10504;48.762;8.996;2022-08-11T17:02:51;0.80;;;0.70;;
20689;SDS011;10504;48.762;8.996;2022-08-11T17:05:37;0.70;;;0.40;;
20689;SDS011;10504;48.762;8.996;2022-08-11T17:08:31;0.30;;;0.30;;
20689;SDS011;10504;48.762;8.996;2022-08-11T17:11:21;1.57;;;0.60;;
20689;SDS011;10504;48.762;8.996;2022-08-11T17:14:10;0.53;;;0.53;;
20689;SDS011;10504;48.762;8.996;2022-08-11T17:16:38;0.87;;;0.60;;
20689;SDS011;10504;48.762;8.996;2022-08-11T17:19:08;0.30;;;0.30;;
20689;SDS011;10504;48.762;8.996;2022-08-11T17:21:40;1.23;;;0.80;;
20689;SDS011;10504;48.762;8.996;2022-08-11T17:24:29;1.87;;;0.90;;
20689;SDS011;10504;48.762;8.996;2022-08-11T17:26:57;0.47;;;0.47;;
20689;SDS011;10504;48.762;8.996;2022-08-11T17:32:20;0.30;;;0.30;;
20689;SDS011;10504;48.762;8.996;2022-08-11T17:35:20;0.63;;;0.50;;
20689;SDS011;10504;48.762;8.996;2022-08-11T17:40:36;0.40;;;0.40;;
20689;SDS011;10504;48.762;8.996;2022-08-11T17:43:05;0.60;;;0.53;;
20689;SDS011;10504;48.762;8.996;2022-08-11T17:45:51;0.30;;;0.30;;
20689;SDS011;10504;48.762;8.996;2022-08-11T17:48:42;0.77;;;0.70;;
20689;SDS011;10504;48.762;8.996;2022-08-11T17:51:12;0.50;;;0.50;;
20689;SDS011;10504;48.762;8.996;2022-08-11T17:54:02;0.30;;;0.30;;
20689;SDS011;10504;48.762;8.996;2022-08-11T17:56:48;0.50;;;0.40;;
20689;SDS011;10504;48.762;8.996;2022-08-11T17:59:34;0.40;;;0.40;;
20689;SDS011;10504;48.762;8.996;2022-08-11T18:02:38;0.90;;;0.40;;
20689;SDS011;10504;48.762;8.996;2022-08-11T18:05:46;0.43;;;0.43;;
20689;SDS011;10504;48.762;8.996;2022-08-11T18:08:13;0.97;;;0.63;;
20689;SDS011;10504;48.762;8.996;2022-08-11T18:10:59;0.40;;;0.40;;
20689;SDS011;10504;48.762;8.996;2022-08-11T18:13:44;0.40;;;0.40;;
20689;SDS011;10504;48.762;8.996;2022-08-11T18:16:30;1.50;;;0.63;;
20689;SDS011;10504;48.762;8.996;2022-08-11T18:19:14;0.57;;;0.50;;
20689;SDS011;10504;48.762;8.996;2022-08-11T18:22:00;2.37;;;0.80;;
20689;SDS011;10504;48.762;8.996;2022-08-11T18:24:56;0.73;;;0.60;;
20689;SDS011;10504;48.762;8.996;2022-08-11T18:27:45;0.57;;;0.47;;
20689;SDS011;10504;48.762;8.996;2022-08-11T18:30:32;0.50;;;0.50;;
20689;SDS011;10504;48.762;8.996;2022-08-11T18:33:19;0.70;;;0.67;;
20689;SDS011;10504;48.762;8.996;2022-08-11T18:36:07;0.40;;;0.40;;
20689;SDS011;10504;48.762;8.996;2022-08-11T18:38:56;1.70;;;0.77;;
20689;SDS011;10504;48.762;8.996;2022-08-11T18:41:44;0.70;;;0.53;;
20689;SDS011;10504;48.762;8.996;2022-08-11T18:44:30;1.50;;;0.83;;
20689;SDS011;10504;48.762;8.996;2022-08-11T18:47:17;1.20;;;0.93;;
20689;SDS011;10504;48.762;8.996;2022-08-11T18:50:04;0.67;;;0.50;;
20689;SDS011;10504;48.762;8.996;2022-08-11T18:52:54;0.60;;;0.60;;
20689;SDS011;10504;48.762;8.996;2022-08-11T18:55:39;0.77;;;0.50;;
20689;SDS011;10504;48.762;8.996;2022-08-11T18:58:28;0.53;;;0.53;;
20689;SDS011;10504;48.762;8.996;2022-08-11T19:01:14;2.10;;;0.63;;
20689;SDS011;10504;48.762;8.996;2022-08-11T19:04:04;0.60;;;0.60;;
20689;SDS011;10504;48.762;8.996;2022-08-11T19:06:51;1.73;;;0.90;;
20689;SDS011;10504;48.762;8.996;2022-08-11T19:09:39;0.50;;;0.50;;
20689;SDS011;10504;48.762;8.996;2022-08-11T19:12:25;0.60;;;0.50;;
20689;SDS011;10504;48.762;8.996;2022-08-11T19:15:17;1.80;;;0.90;;
20689;SDS011;10504;48.762;8.996;2022-08-11T19:18:03;1.53;;;1.00;;
20689;SDS011;10504;48.762;8.996;2022-08-11T19:20:49;1.50;;;0.90;;
20689;SDS011;10504;48.762;8.996;2022-08-11T19:23:40;0.57;;;0.57;;
20689;SDS011;10504;48.762;8.996;2022-08-11T19:26:27;1.37;;;0.80;;
20689;SDS011;10504;48.762;8.996;2022-08-11T19:29:13;0.67;;;0.60;;
20689;SDS011;10504;48.762;8.996;2022-08-11T19:31:59;0.77;;;0.60;;
20689;SDS011;10504;48.762;8.996;2022-08-11T19:34:44;0.40;;;0.40;;
20689;SDS011;10504;48.762;8.996;2022-08-11T19:37:28;0.97;;;0.60;;
20689;SDS011;10504;48.762;8.996;2022-08-11T19:40:14;0.77;;;0.57;;
20689;SDS011;10504;48.762;8.996;2022-08-11T19:42:59;2.20;;;0.70;;
20689;SDS011;10504;48.762;8.996;2022-08-11T19:45:45;0.70;;;0.70;;
20689;SDS011;10504;48.762;8.996;2022-08-11T19:48:30;0.73;;;0.63;;
20689;SDS011;10504;48.762;8.996;2022-08-11T19:51:16;1.37;;;0.60;;
20689;SDS011;10504;48.762;8.996;2022-08-11T19:54:02;0.73;;;0.53;;
20689;SDS011;10504;48.762;8.996;2022-08-11T19:56:48;1.63;;;1.10;;
20689;SDS011;10504;48.762;8.996;2022-08-11T19:59:33;1.33;;;0.60;;
20689;SDS011;10504;48.762;8.996;2022-08-11T20:02:18;1.47;;;0.83;;